sensor_id;sensor_type;location;lat;lon;timestamp;P1;durP1;ratioP1;P2;durP2;ratioP2
17310;SDS011;8773;43.300;0.394;2023-12-20T00:00:30;9.13;;;8.53;;
17310;SDS011;8773;43.300;0.394;2023-12-20T00:02:58;8.40;;;7.87;;
17310;SDS011;8773;43.300;0.394;2023-12-20T00:05:25;8.20;;;7.70;;
17310;SDS011;8773;43.300;0.394;2023-12-20T00:07:53;8.40;;;7.73;;
17310;SDS011;8773;43.300;0.394;2023-12-20T00:10:22;8.30;;;7.70;;
17310;SDS011;8773;43.300;0.394;2023-12-20T00:12:50;8.60;;;8.00;;
17310;SDS011;8773;43.300;0.394;2023-12-20T00:15:17;10.07;;;9.27;;
17310;SDS011;8773;43.300;0.394;2023-12-20T00:17:45;10.80;;;9.90;;
17310;SDS011;8773;43.300;0.394;2023-12-20T00:20:13;10.13;;;9.23;;
17310;SDS011;8773;43.300;0.394;2023-12-20T00:22:41;9.67;;;8.97;;
17310;SDS011;8773;43.300;0.394;2023-12-20T00:25:08;9.80;;;9.00;;
17310;SDS011;8773;43.300;0.394;2023-12-20T00:27:37;9.37;;;8.57;;
17310;SDS011;8773;43.300;0.394;2023-12-20T00:30:05;9.50;;;8.80;;
17310;SDS011;8773;43.300;0.394;2023-12-20T00:32:34;9.97;;;9.07;;
17310;SDS011;8773;43.300;0.394;2023-12-20T00:35:02;9.93;;;9.03;;
17310;SDS011;8773;43.300;0.394;2023-12-20T00:37:30;9.80;;;9.10;;
17310;SDS011;8773;43.300;0.394;2023-12-20T00:39:58;9.90;;;9.10;;
17310;SDS011;8773;43.300;0.394;2023-12-20T00:42:26;10.50;;;9.50;;
17310;SDS011;8773;43.300;0.394;2023-12-20T00:44:55;24.13;;;19.03;;
17310;SDS011;8773;43.300;0.394;2023-12-20T00:47:22;18.80;;;16.53;;
17310;SDS011;8773;43.300;0.394;2023-12-20T00:49:50;16.63;;;15.02;;
17310;SDS011;8773;43.300;0.394;2023-12-20T00:52:17;23.67;;;19.23;;
17310;SDS011;8773;43.300;0.394;2023-12-20T00:54:45;14.50;;;13.10;;
17310;SDS011;8773;43.300;0.394;2023-12-20T00:57:13;13.03;;;11.73;;
17310;SDS011;8773;43.300;0.394;2023-12-20T00:59:41;16.67;;;14.27;;
17310;SDS011;8773;43.300;0.394;2023-12-20T01:02:09;20.67;;;18.33;;
17310;SDS011;8773;43.300;0.394;2023-12-20T01:04:37;29.57;;;22.87;;
17310;SDS011;8773;43.300;0.394;2023-12-20T01:07:05;22.60;;;18.53;;
17310;SDS011;8773;43.300;0.394;2023-12-20T01:09:32;17.30;;;15.43;;
17310;SDS011;8773;43.300;0.394;2023-12-20T01:12:00;14.40;;;13.00;;
17310;SDS011;8773;43.300;0.394;2023-12-20T01:14:28;15.30;;;13.77;;
17310;SDS011;8773;43.300;0.394;2023-12-20T01:16:55;14.97;;;13.47;;
17310;SDS011;8773;43.300;0.394;2023-12-20T01:19:25;12.53;;;11.33;;
17310;SDS011;8773;43.300;0.394;2023-12-20T01:21:53;13.40;;;12.10;;
17310;SDS011;8773;43.300;0.394;2023-12-20T01:24:20;11.30;;;10.20;;
17310;SDS011;8773;43.300;0.394;2023-12-20T01:26:48;12.17;;;11.07;;
17310;SDS011;8773;43.300;0.394;2023-12-20T01:29:16;10.40;;;9.50;;
17310;SDS011;8773;43.300;0.394;2023-12-20T01:31:43;9.87;;;9.00;;
17310;SDS011;8773;43.300;0.394;2023-12-20T01:34:11;7.90;;;7.40;;
17310;SDS011;8773;43.300;0.394;2023-12-20T01:36:40;9.30;;;8.57;;
17310;SDS011;8773;43.300;0.394;2023-12-20T01:39:08;9.53;;;8.43;;
17310;SDS011;8773;43.300;0.394;2023-12-20T01:41:42;7.03;;;6.63;;
17310;SDS011;8773;43.300;0.394;2023-12-20T01:44:10;7.60;;;7.10;;
17310;SDS011;8773;43.300;0.394;2023-12-20T01:46:38;8.13;;;7.43;;
17310;SDS011;8773;43.300;0.394;2023-12-20T01:49:05;8.07;;;7.47;;
17310;SDS011;8773;43.300;0.394;2023-12-20T01:51:34;7.97;;;7.37;;
17310;SDS011;8773;43.300;0.394;2023-12-20T01:54:04;8.30;;;7.70;;
17310;SDS011;8773;43.300;0.394;2023-12-20T01:56:32;7.87;;;7.33;;
17310;SDS011;8773;43.300;0.394;2023-12-20T01:59:00;7.53;;;7.03;;
17310;SDS011;8773;43.300;0.394;2023-12-20T02:01:28;7.93;;;7.33;;
17310;SDS011;8773;43.300;0.394;2023-12-20T02:03:56;8.07;;;7.40;;
17310;SDS011;8773;43.300;0.394;2023-12-20T02:06:25;7.63;;;7.13;;
17310;SDS011;8773;43.300;0.394;2023-12-20T02:08:57;8.03;;;7.53;;
17310;SDS011;8773;43.300;0.394;2023-12-20T02:11:26;7.30;;;6.70;;
17310;SDS011;8773;43.300;0.394;2023-12-20T02:13:54;6.97;;;6.57;;
17310;SDS011;8773;43.300;0.394;2023-12-20T02:16:22;6.80;;;6.40;;
17310;SDS011;8773;43.300;0.394;2023-12-20T02:18:50;6.20;;;5.80;;
17310;SDS011;8773;43.300;0.394;2023-12-20T02:21:18;6.60;;;6.10;;
17310;SDS011;8773;43.300;0.394;2023-12-20T02:23:47;6.53;;;6.03;;
17310;SDS011;8773;43.300;0.394;2023-12-20T02:26:14;6.83;;;6.23;;
17310;SDS011;8773;43.300;0.394;2023-12-20T02:28:42;5.80;;;5.50;;
17310;SDS011;8773;43.300;0.394;2023-12-20T02:31:09;6.03;;;5.63;;
17310;SDS011;8773;43.300;0.394;2023-12-20T02:33:37;6.97;;;6.47;;
17310;SDS011;8773;43.300;0.394;2023-12-20T02:36:06;5.93;;;5.63;;
17310;SDS011;8773;43.300;0.394;2023-12-20T02:38:34;5.97;;;5.67;;
17310;SDS011;8773;43.300;0.394;2023-12-20T02:41:03;6.40;;;6.00;;
17310;SDS011;8773;43.300;0.394;2023-12-20T02:43:30;5.93;;;5.53;;
17310;SDS011;8773;43.300;0.394;2023-12-20T02:45:58;5.93;;;5.63;;
17310;SDS011;8773;43.300;0.394;2023-12-20T02:48:25;6.43;;;5.93;;
17310;SDS011;8773;43.300;0.394;2023-12-20T02:50:53;6.07;;;5.57;;
17310;SDS011;8773;43.300;0.394;2023-12-20T02:53:21;6.00;;;5.60;;
17310;SDS011;8773;43.300;0.394;2023-12-20T02:55:49;6.77;;;6.23;;
17310;SDS011;8773;43.300;0.394;2023-12-20T02:58:18;7.20;;;6.70;;
17310;SDS011;8773;43.300;0.394;2023-12-20T03:00:46;6.60;;;6.30;;
17310;SDS011;8773;43.300;0.394;2023-12-20T03:03:13;7.17;;;6.73;;
17310;SDS011;8773;43.300;0.394;2023-12-20T03:05:41;6.93;;;6.53;;
17310;SDS011;8773;43.300;0.394;2023-12-20T03:08:09;6.77;;;6.27;;
17310;SDS011;8773;43.300;0.394;2023-12-20T03:10:36;7.67;;;7.13;;
17310;SDS011;8773;43.300;0.394;2023-12-20T03:13:04;7.70;;;7.10;;
17310;SDS011;8773;43.300;0.394;2023-12-20T03:15:33;7.97;;;7.27;;
17310;SDS011;8773;43.300;0.394;2023-12-20T03:18:00;6.87;;;6.40;;
17310;SDS011;8773;43.300;0.394;2023-12-20T03:20:28;7.73;;;7.23;;
17310;SDS011;8773;43.300;0.394;2023-12-20T03:22:56;7.50;;;7.00;;
17310;SDS011;8773;43.300;0.394;2023-12-20T03:25:23;6.90;;;6.40;;
17310;SDS011;8773;43.300;0.394;2023-12-20T03:27:51;7.97;;;7.37;;
17310;SDS011;8773;43.300;0.394;2023-12-20T03:30:19;6.83;;;6.30;;
17310;SDS011;8773;43.300;0.394;2023-12-20T03:32:48;6.67;;;6.27;;
17310;SDS011;8773;43.300;0.394;2023-12-20T03:35:16;6.83;;;6.43;;
17310;SDS011;8773;43.300;0.394;2023-12-20T03:37:44;7.30;;;6.80;;
17310;SDS011;8773;43.300;0.394;2023-12-20T03:40:12;7.07;;;6.57;;
17310;SDS011;8773;43.300;0.394;2023-12-20T03:42:39;4.63;;;4.33;;
17310;SDS011;8773;43.300;0.394;2023-12-20T03:45:07;6.10;;;5.60;;
17310;SDS011;8773;43.300;0.394;2023-12-20T03:47:36;5.90;;;5.60;;
17310;SDS011;8773;43.300;0.394;2023-12-20T03:50:05;5.53;;;5.20;;
17310;SDS011;8773;43.300;0.394;2023-12-20T03:52:34;5.27;;;4.97;;
17310;SDS011;8773;43.300;0.394;2023-12-20T03:55:01;5.53;;;5.23;;
17310;SDS011;8773;43.300;0.394;2023-12-20T03:57:29;5.10;;;4.70;;
17310;SDS011;8773;43.300;0.394;2023-12-20T03:59:57;5.10;;;4.80;;
17310;SDS011;8773;43.300;0.394;2023-12-20T04:02:24;4.47;;;4.27;;
17310;SDS011;8773;43.300;0.394;2023-12-20T04:04:52;4.63;;;4.43;;
17310;SDS011;8773;43.300;0.394;2023-12-20T04:07:21;5.40;;;5.03;;
17310;SDS011;8773;43.300;0.394;2023-12-20T04:09:49;5.23;;;4.87;;
17310;SDS011;8773;43.300;0.394;2023-12-20T04:12:16;5.00;;;4.70;;
17310;SDS011;8773;43.300;0.394;2023-12-20T04:14:44;4.50;;;4.30;;
17310;SDS011;8773;43.300;0.394;2023-12-20T04:17:11;4.03;;;3.83;;
17310;SDS011;8773;43.300;0.394;2023-12-20T04:19:39;5.10;;;4.80;;
17310;SDS011;8773;43.300;0.394;2023-12-20T04:22:07;5.87;;;5.47;;
17310;SDS011;8773;43.300;0.394;2023-12-20T04:24:36;6.43;;;5.93;;
17310;SDS011;8773;43.300;0.394;2023-12-20T04:27:04;5.00;;;4.70;;
17310;SDS011;8773;43.300;0.394;2023-12-20T04:29:31;4.87;;;4.57;;
17310;SDS011;8773;43.300;0.394;2023-12-20T04:31:59;3.70;;;3.50;;
17310;SDS011;8773;43.300;0.394;2023-12-20T04:34:26;4.80;;;4.53;;
17310;SDS011;8773;43.300;0.394;2023-12-20T04:36:54;4.23;;;4.03;;
17310;SDS011;8773;43.300;0.394;2023-12-20T04:39:22;4.00;;;3.80;;
17310;SDS011;8773;43.300;0.394;2023-12-20T04:41:51;3.77;;;3.50;;
17310;SDS011;8773;43.300;0.394;2023-12-20T04:44:18;3.00;;;2.80;;
17310;SDS011;8773;43.300;0.394;2023-12-20T04:46:46;3.40;;;3.20;;
17310;SDS011;8773;43.300;0.394;2023-12-20T04:49:14;3.50;;;3.30;;
17310;SDS011;8773;43.300;0.394;2023-12-20T04:51:41;3.20;;;3.10;;
17310;SDS011;8773;43.300;0.394;2023-12-20T04:54:09;3.53;;;3.43;;
17310;SDS011;8773;43.300;0.394;2023-12-20T04:56:37;3.73;;;3.43;;
17310;SDS011;8773;43.300;0.394;2023-12-20T04:59:06;3.57;;;3.37;;
17310;SDS011;8773;43.300;0.394;2023-12-20T05:01:34;3.10;;;2.93;;
17310;SDS011;8773;43.300;0.394;2023-12-20T05:04:02;3.30;;;3.10;;
17310;SDS011;8773;43.300;0.394;2023-12-20T05:06:29;3.53;;;3.33;;
17310;SDS011;8773;43.300;0.394;2023-12-20T05:08:57;4.20;;;3.90;;
17310;SDS011;8773;43.300;0.394;2023-12-20T05:11:25;3.67;;;3.40;;
17310;SDS011;8773;43.300;0.394;2023-12-20T05:13:52;3.50;;;3.20;;
17310;SDS011;8773;43.300;0.394;2023-12-20T05:16:21;3.57;;;3.47;;
17310;SDS011;8773;43.300;0.394;2023-12-20T05:18:49;4.30;;;4.10;;
17310;SDS011;8773;43.300;0.394;2023-12-20T05:21:17;5.07;;;4.77;;
17310;SDS011;8773;43.300;0.394;2023-12-20T05:23:44;4.17;;;3.97;;
17310;SDS011;8773;43.300;0.394;2023-12-20T05:26:12;3.37;;;3.27;;
17310;SDS011;8773;43.300;0.394;2023-12-20T05:28:40;3.77;;;3.57;;
17310;SDS011;8773;43.300;0.394;2023-12-20T05:31:07;3.60;;;3.50;;
17310;SDS011;8773;43.300;0.394;2023-12-20T05:33:37;4.03;;;3.80;;
17310;SDS011;8773;43.300;0.394;2023-12-20T05:36:05;3.60;;;3.50;;
17310;SDS011;8773;43.300;0.394;2023-12-20T05:38:32;3.83;;;3.63;;
17310;SDS011;8773;43.300;0.394;2023-12-20T05:41:00;4.00;;;3.80;;
17310;SDS011;8773;43.300;0.394;2023-12-20T05:43:28;4.00;;;3.80;;
17310;SDS011;8773;43.300;0.394;2023-12-20T05:45:55;5.40;;;5.10;;
17310;SDS011;8773;43.300;0.394;2023-12-20T05:48:23;5.77;;;5.47;;
17310;SDS011;8773;43.300;0.394;2023-12-20T05:50:52;5.30;;;4.97;;
17310;SDS011;8773;43.300;0.394;2023-12-20T05:53:20;6.00;;;5.60;;
17310;SDS011;8773;43.300;0.394;2023-12-20T05:55:47;6.70;;;6.20;;
17310;SDS011;8773;43.300;0.394;2023-12-20T05:58:15;6.27;;;5.67;;
17310;SDS011;8773;43.300;0.394;2023-12-20T06:00:43;6.30;;;5.83;;
17310;SDS011;8773;43.300;0.394;2023-12-20T06:04:03;5.33;;;4.93;;
17310;SDS011;8773;43.300;0.394;2023-12-20T06:06:31;4.80;;;4.40;;
17310;SDS011;8773;43.300;0.394;2023-12-20T06:08:58;4.23;;;3.97;;
17310;SDS011;8773;43.300;0.394;2023-12-20T06:11:26;3.03;;;2.90;;
17310;SDS011;8773;43.300;0.394;2023-12-20T06:13:53;3.00;;;2.80;;
17310;SDS011;8773;43.300;0.394;2023-12-20T06:16:20;2.90;;;2.80;;
17310;SDS011;8773;43.300;0.394;2023-12-20T06:18:48;2.70;;;2.53;;
17310;SDS011;8773;43.300;0.394;2023-12-20T06:21:16;1.73;;;1.70;;
17310;SDS011;8773;43.300;0.394;2023-12-20T06:23:44;1.83;;;1.73;;
17310;SDS011;8773;43.300;0.394;2023-12-20T06:26:11;1.57;;;1.57;;
17310;SDS011;8773;43.300;0.394;2023-12-20T06:28:38;1.70;;;1.70;;
17310;SDS011;8773;43.300;0.394;2023-12-20T06:31:08;1.20;;;1.20;;
17310;SDS011;8773;43.300;0.394;2023-12-20T06:33:35;1.40;;;1.40;;
17310;SDS011;8773;43.300;0.394;2023-12-20T06:36:03;1.67;;;1.67;;
17310;SDS011;8773;43.300;0.394;2023-12-20T06:38:32;1.80;;;1.80;;
17310;SDS011;8773;43.300;0.394;2023-12-20T06:40:59;1.80;;;1.73;;
17310;SDS011;8773;43.300;0.394;2023-12-20T06:43:27;1.67;;;1.67;;
17310;SDS011;8773;43.300;0.394;2023-12-20T06:46:12;1.60;;;1.60;;
17310;SDS011;8773;43.300;0.394;2023-12-20T06:48:40;1.60;;;1.50;;
17310;SDS011;8773;43.300;0.394;2023-12-20T06:51:10;1.60;;;1.50;;
17310;SDS011;8773;43.300;0.394;2023-12-20T06:53:40;1.90;;;1.80;;
17310;SDS011;8773;43.300;0.394;2023-12-20T06:56:07;2.10;;;2.00;;
17310;SDS011;8773;43.300;0.394;2023-12-20T06:58:37;1.90;;;1.80;;
17310;SDS011;8773;43.300;0.394;2023-12-20T07:01:04;2.30;;;2.20;;
17310;SDS011;8773;43.300;0.394;2023-12-20T07:03:32;2.20;;;2.10;;
17310;SDS011;8773;43.300;0.394;2023-12-20T07:05:59;1.77;;;1.77;;
17310;SDS011;8773;43.300;0.394;2023-12-20T07:08:26;2.43;;;2.30;;
17310;SDS011;8773;43.300;0.394;2023-12-20T07:10:55;2.10;;;2.00;;
17310;SDS011;8773;43.300;0.394;2023-12-20T07:13:22;1.80;;;1.80;;
17310;SDS011;8773;43.300;0.394;2023-12-20T07:15:50;2.53;;;2.33;;
17310;SDS011;8773;43.300;0.394;2023-12-20T07:18:17;2.20;;;2.07;;
17310;SDS011;8773;43.300;0.394;2023-12-20T07:20:45;3.37;;;2.30;;
17310;SDS011;8773;43.300;0.394;2023-12-20T07:23:12;1.93;;;1.83;;
17310;SDS011;8773;43.300;0.394;2023-12-20T07:25:39;1.93;;;1.83;;
17310;SDS011;8773;43.300;0.394;2023-12-20T07:28:08;2.30;;;2.20;;
17310;SDS011;8773;43.300;0.394;2023-12-20T07:30:35;3.23;;;3.03;;
17310;SDS011;8773;43.300;0.394;2023-12-20T07:33:03;2.50;;;2.40;;
17310;SDS011;8773;43.300;0.394;2023-12-20T07:35:31;4.07;;;3.77;;
17310;SDS011;8773;43.300;0.394;2023-12-20T07:37:58;3.77;;;3.30;;
17310;SDS011;8773;43.300;0.394;2023-12-20T07:40:26;2.73;;;2.53;;
17310;SDS011;8773;43.300;0.394;2023-12-20T07:42:53;5.00;;;4.70;;
17310;SDS011;8773;43.300;0.394;2023-12-20T07:45:22;3.40;;;3.20;;
17310;SDS011;8773;43.300;0.394;2023-12-20T07:47:49;3.77;;;3.57;;
17310;SDS011;8773;43.300;0.394;2023-12-20T07:50:16;3.77;;;3.47;;
17310;SDS011;8773;43.300;0.394;2023-12-20T07:52:44;3.27;;;3.07;;
17310;SDS011;8773;43.300;0.394;2023-12-20T07:55:11;3.10;;;2.90;;
17310;SDS011;8773;43.300;0.394;2023-12-20T07:57:39;2.80;;;2.70;;
17310;SDS011;8773;43.300;0.394;2023-12-20T08:00:06;3.23;;;2.90;;
17310;SDS011;8773;43.300;0.394;2023-12-20T08:02:35;2.13;;;2.03;;
17310;SDS011;8773;43.300;0.394;2023-12-20T08:05:03;4.67;;;3.10;;
17310;SDS011;8773;43.300;0.394;2023-12-20T08:07:30;3.80;;;3.60;;
17310;SDS011;8773;43.300;0.394;2023-12-20T08:09:58;3.00;;;2.80;;
17310;SDS011;8773;43.300;0.394;2023-12-20T08:12:25;3.30;;;3.10;;
17310;SDS011;8773;43.300;0.394;2023-12-20T08:14:53;5.10;;;4.40;;
17310;SDS011;8773;43.300;0.394;2023-12-20T08:17:20;3.13;;;2.93;;
17310;SDS011;8773;43.300;0.394;2023-12-20T08:19:49;4.33;;;4.03;;
17310;SDS011;8773;43.300;0.394;2023-12-20T08:22:16;3.20;;;2.90;;
17310;SDS011;8773;43.300;0.394;2023-12-20T08:24:44;3.63;;;3.40;;
17310;SDS011;8773;43.300;0.394;2023-12-20T08:27:11;4.00;;;3.70;;
17310;SDS011;8773;43.300;0.394;2023-12-20T08:29:39;4.03;;;3.83;;
17310;SDS011;8773;43.300;0.394;2023-12-20T08:32:06;4.07;;;3.63;;
17310;SDS011;8773;43.300;0.394;2023-12-20T08:34:33;3.40;;;3.10;;
17310;SDS011;8773;43.300;0.394;2023-12-20T08:37:02;4.90;;;3.53;;
17310;SDS011;8773;43.300;0.394;2023-12-20T08:39:30;2.90;;;2.60;;
17310;SDS011;8773;43.300;0.394;2023-12-20T08:41:57;3.53;;;3.30;;
17310;SDS011;8773;43.300;0.394;2023-12-20T08:44:24;3.50;;;3.03;;
17310;SDS011;8773;43.300;0.394;2023-12-20T08:46:52;3.43;;;3.23;;
17310;SDS011;8773;43.300;0.394;2023-12-20T08:49:19;3.57;;;3.30;;
17310;SDS011;8773;43.300;0.394;2023-12-20T08:51:46;3.77;;;3.30;;
17310;SDS011;8773;43.300;0.394;2023-12-20T08:54:15;3.20;;;3.00;;
17310;SDS011;8773;43.300;0.394;2023-12-20T08:56:43;3.50;;;2.90;;
17310;SDS011;8773;43.300;0.394;2023-12-20T08:59:10;3.97;;;2.83;;
17310;SDS011;8773;43.300;0.394;2023-12-20T09:01:37;3.70;;;3.00;;
17310;SDS011;8773;43.300;0.394;2023-12-20T09:04:05;4.00;;;2.63;;
17310;SDS011;8773;43.300;0.394;2023-12-20T09:06:32;3.67;;;3.37;;
17310;SDS011;8773;43.300;0.394;2023-12-20T09:08:59;3.50;;;2.93;;
17310;SDS011;8773;43.300;0.394;2023-12-20T09:11:28;3.00;;;2.80;;
17310;SDS011;8773;43.300;0.394;2023-12-20T09:13:56;3.53;;;2.83;;
17310;SDS011;8773;43.300;0.394;2023-12-20T09:16:23;4.00;;;2.87;;
17310;SDS011;8773;43.300;0.394;2023-12-20T09:18:51;4.27;;;3.30;;
17310;SDS011;8773;43.300;0.394;2023-12-20T09:21:18;6.00;;;3.30;;
17310;SDS011;8773;43.300;0.394;2023-12-20T09:23:45;6.40;;;3.60;;
17310;SDS011;8773;43.300;0.394;2023-12-20T09:26:13;4.50;;;3.50;;
17310;SDS011;8773;43.300;0.394;2023-12-20T09:28:41;4.80;;;3.10;;
17310;SDS011;8773;43.300;0.394;2023-12-20T09:31:09;3.70;;;3.40;;
17310;SDS011;8773;43.300;0.394;2023-12-20T09:33:36;4.57;;;3.50;;
17310;SDS011;8773;43.300;0.394;2023-12-20T09:36:04;7.70;;;3.90;;
17310;SDS011;8773;43.300;0.394;2023-12-20T09:38:32;4.63;;;4.40;;
17310;SDS011;8773;43.300;0.394;2023-12-20T09:41:00;4.37;;;3.97;;
17310;SDS011;8773;43.300;0.394;2023-12-20T09:43:27;3.47;;;3.17;;
17310;SDS011;8773;43.300;0.394;2023-12-20T09:45:58;4.07;;;2.50;;
17310;SDS011;8773;43.300;0.394;2023-12-20T09:48:27;2.77;;;2.40;;
17310;SDS011;8773;43.300;0.394;2023-12-20T09:53:22;4.07;;;2.80;;
17310;SDS011;8773;43.300;0.394;2023-12-20T09:55:52;4.87;;;2.43;;
17310;SDS011;8773;43.300;0.394;2023-12-20T09:58:19;4.10;;;2.37;;
17310;SDS011;8773;43.300;0.394;2023-12-20T10:00:47;2.73;;;2.17;;
17310;SDS011;8773;43.300;0.394;2023-12-20T10:03:17;4.23;;;2.30;;
17310;SDS011;8773;43.300;0.394;2023-12-20T10:05:49;4.50;;;2.30;;
17310;SDS011;8773;43.300;0.394;2023-12-20T10:55:32;5.70;;;2.67;;
17310;SDS011;8773;43.300;0.394;2023-12-20T10:58:00;4.23;;;2.63;;
17310;SDS011;8773;43.300;0.394;2023-12-20T11:00:29;4.00;;;2.53;;
17310;SDS011;8773;43.300;0.394;2023-12-20T11:03:00;4.17;;;2.10;;
17310;SDS011;8773;43.300;0.394;2023-12-20T11:05:30;7.03;;;2.67;;
17310;SDS011;8773;43.300;0.394;2023-12-20T11:08:07;3.60;;;2.43;;
17310;SDS011;8773;43.300;0.394;2023-12-20T11:10:42;4.23;;;2.43;;
17310;SDS011;8773;43.300;0.394;2023-12-20T11:13:16;6.07;;;2.47;;
17310;SDS011;8773;43.300;0.394;2023-12-20T11:15:48;3.87;;;2.60;;
17310;SDS011;8773;43.300;0.394;2023-12-20T11:18:16;5.53;;;2.57;;
17310;SDS011;8773;43.300;0.394;2023-12-20T11:20:43;3.77;;;2.30;;
17310;SDS011;8773;43.300;0.394;2023-12-20T11:23:11;7.27;;;2.63;;
17310;SDS011;8773;43.300;0.394;2023-12-20T11:25:49;2.27;;;2.03;;
17310;SDS011;8773;43.300;0.394;2023-12-20T11:28:20;3.17;;;2.70;;
17310;SDS011;8773;43.300;0.394;2023-12-20T11:30:50;3.13;;;2.27;;
17310;SDS011;8773;43.300;0.394;2023-12-20T11:33:21;3.40;;;2.10;;
17310;SDS011;8773;43.300;0.394;2023-12-20T11:35:49;3.20;;;2.03;;
17310;SDS011;8773;43.300;0.394;2023-12-20T11:38:16;2.07;;;1.97;;
17310;SDS011;8773;43.300;0.394;2023-12-20T11:40:43;3.47;;;1.97;;
17310;SDS011;8773;43.300;0.394;2023-12-20T11:43:12;4.80;;;2.43;;
17310;SDS011;8773;43.300;0.394;2023-12-20T11:45:56;2.53;;;1.80;;
17310;SDS011;8773;43.300;0.394;2023-12-20T11:48:30;2.93;;;1.90;;
17310;SDS011;8773;43.300;0.394;2023-12-20T11:50:57;4.33;;;1.93;;
17310;SDS011;8773;43.300;0.394;2023-12-20T11:53:25;2.50;;;1.53;;
17310;SDS011;8773;43.300;0.394;2023-12-20T11:55:53;3.97;;;2.10;;
17310;SDS011;8773;43.300;0.394;2023-12-20T11:58:22;3.73;;;2.20;;
17310;SDS011;8773;43.300;0.394;2023-12-20T12:00:50;2.50;;;2.10;;
17310;SDS011;8773;43.300;0.394;2023-12-20T12:03:17;5.03;;;2.43;;
17310;SDS011;8773;43.300;0.394;2023-12-20T12:05:47;3.27;;;2.07;;
17310;SDS011;8773;43.300;0.394;2023-12-20T12:08:14;3.87;;;2.33;;
17310;SDS011;8773;43.300;0.394;2023-12-20T12:10:42;2.40;;;2.20;;
17310;SDS011;8773;43.300;0.394;2023-12-20T12:13:09;3.70;;;1.77;;
17310;SDS011;8773;43.300;0.394;2023-12-20T12:15:38;3.50;;;2.23;;
17310;SDS011;8773;43.300;0.394;2023-12-20T12:18:06;3.43;;;2.10;;
17310;SDS011;8773;43.300;0.394;2023-12-20T12:20:34;4.23;;;2.43;;
17310;SDS011;8773;43.300;0.394;2023-12-20T12:23:04;3.87;;;2.20;;
17310;SDS011;8773;43.300;0.394;2023-12-20T12:25:33;3.83;;;2.10;;
17310;SDS011;8773;43.300;0.394;2023-12-20T12:28:07;4.67;;;2.03;;
17310;SDS011;8773;43.300;0.394;2023-12-20T12:30:34;3.63;;;2.07;;
17310;SDS011;8773;43.300;0.394;2023-12-20T12:33:13;3.63;;;2.10;;
17310;SDS011;8773;43.300;0.394;2023-12-20T12:35:40;3.07;;;2.10;;
17310;SDS011;8773;43.300;0.394;2023-12-20T12:38:08;2.33;;;2.10;;
17310;SDS011;8773;43.300;0.394;2023-12-20T12:40:35;3.03;;;1.83;;
17310;SDS011;8773;43.300;0.394;2023-12-20T12:43:03;1.80;;;1.70;;
17310;SDS011;8773;43.300;0.394;2023-12-20T12:45:30;4.67;;;1.93;;
17310;SDS011;8773;43.300;0.394;2023-12-20T12:47:57;1.90;;;1.73;;
17310;SDS011;8773;43.300;0.394;2023-12-20T12:50:26;5.63;;;1.80;;
17310;SDS011;8773;43.300;0.394;2023-12-20T12:52:54;4.20;;;1.90;;
17310;SDS011;8773;43.300;0.394;2023-12-20T12:55:21;3.50;;;2.17;;
17310;SDS011;8773;43.300;0.394;2023-12-20T12:57:48;2.43;;;1.87;;
17310;SDS011;8773;43.300;0.394;2023-12-20T13:00:16;3.80;;;2.43;;
17310;SDS011;8773;43.300;0.394;2023-12-20T13:02:44;1.90;;;1.80;;
17310;SDS011;8773;43.300;0.394;2023-12-20T13:05:11;1.97;;;1.73;;
17310;SDS011;8773;43.300;0.394;2023-12-20T13:07:40;2.27;;;1.50;;
17310;SDS011;8773;43.300;0.394;2023-12-20T13:10:08;1.73;;;1.50;;
17310;SDS011;8773;43.300;0.394;2023-12-20T13:12:35;4.10;;;1.80;;
17310;SDS011;8773;43.300;0.394;2023-12-20T13:15:03;3.17;;;1.87;;
17310;SDS011;8773;43.300;0.394;2023-12-20T13:17:31;1.90;;;1.77;;
17310;SDS011;8773;43.300;0.394;2023-12-20T13:19:59;2.20;;;1.80;;
17310;SDS011;8773;43.300;0.394;2023-12-20T13:22:26;2.60;;;1.73;;
17310;SDS011;8773;43.300;0.394;2023-12-20T13:24:55;4.13;;;1.70;;
17310;SDS011;8773;43.300;0.394;2023-12-20T13:27:23;1.50;;;1.40;;
17310;SDS011;8773;43.300;0.394;2023-12-20T13:29:50;2.23;;;1.90;;
17310;SDS011;8773;43.300;0.394;2023-12-20T13:32:17;4.00;;;1.80;;
17310;SDS011;8773;43.300;0.394;2023-12-20T13:34:45;1.70;;;1.60;;
17310;SDS011;8773;43.300;0.394;2023-12-20T13:37:12;2.47;;;1.53;;
17310;SDS011;8773;43.300;0.394;2023-12-20T13:39:39;2.63;;;1.70;;
17310;SDS011;8773;43.300;0.394;2023-12-20T13:42:08;3.00;;;1.50;;
17310;SDS011;8773;43.300;0.394;2023-12-20T13:44:35;2.87;;;1.43;;
17310;SDS011;8773;43.300;0.394;2023-12-20T13:47:03;1.53;;;1.43;;
17310;SDS011;8773;43.300;0.394;2023-12-20T13:49:30;2.03;;;1.37;;
17310;SDS011;8773;43.300;0.394;2023-12-20T13:51:58;4.47;;;1.80;;
17310;SDS011;8773;43.300;0.394;2023-12-20T13:54:26;2.67;;;1.60;;
17310;SDS011;8773;43.300;0.394;2023-12-20T13:56:53;1.43;;;1.37;;
17310;SDS011;8773;43.300;0.394;2023-12-20T13:59:39;1.57;;;1.40;;
17310;SDS011;8773;43.300;0.394;2023-12-20T14:02:06;1.60;;;1.50;;
17310;SDS011;8773;43.300;0.394;2023-12-20T14:04:34;1.57;;;1.47;;
17310;SDS011;8773;43.300;0.394;2023-12-20T14:07:09;2.57;;;1.70;;
17310;SDS011;8773;43.300;0.394;2023-12-20T14:09:37;1.60;;;1.50;;
17310;SDS011;8773;43.300;0.394;2023-12-20T14:12:05;1.37;;;1.30;;
17310;SDS011;8773;43.300;0.394;2023-12-20T14:14:33;2.60;;;1.50;;
17310;SDS011;8773;43.300;0.394;2023-12-20T14:17:02;2.60;;;1.30;;
17310;SDS011;8773;43.300;0.394;2023-12-20T14:19:29;1.83;;;1.50;;
17310;SDS011;8773;43.300;0.394;2023-12-20T14:21:57;1.63;;;1.33;;
17310;SDS011;8773;43.300;0.394;2023-12-20T14:24:24;1.53;;;1.40;;
17310;SDS011;8773;43.300;0.394;2023-12-20T14:26:51;2.20;;;1.87;;
17310;SDS011;8773;43.300;0.394;2023-12-20T14:29:19;1.77;;;1.43;;
17310;SDS011;8773;43.300;0.394;2023-12-20T14:31:46;1.70;;;1.60;;
17310;SDS011;8773;43.300;0.394;2023-12-20T14:34:15;1.70;;;1.60;;
17310;SDS011;8773;43.300;0.394;2023-12-20T14:36:42;2.20;;;1.60;;
17310;SDS011;8773;43.300;0.394;2023-12-20T14:39:09;2.20;;;1.20;;
17310;SDS011;8773;43.300;0.394;2023-12-20T14:41:37;2.23;;;2.10;;
17310;SDS011;8773;43.300;0.394;2023-12-20T14:44:04;1.80;;;1.70;;
17310;SDS011;8773;43.300;0.394;2023-12-20T14:46:31;2.93;;;1.50;;
17310;SDS011;8773;43.300;0.394;2023-12-20T14:48:59;3.50;;;1.77;;
17310;SDS011;8773;43.300;0.394;2023-12-20T14:51:28;1.40;;;1.30;;
17310;SDS011;8773;43.300;0.394;2023-12-20T14:53:55;2.43;;;1.87;;
17310;SDS011;8773;43.300;0.394;2023-12-20T14:56:22;1.90;;;1.53;;
17310;SDS011;8773;43.300;0.394;2023-12-20T14:58:50;1.63;;;1.20;;
17310;SDS011;8773;43.300;0.394;2023-12-20T15:01:17;1.23;;;1.23;;
17310;SDS011;8773;43.300;0.394;2023-12-20T15:03:45;1.30;;;1.20;;
17310;SDS011;8773;43.300;0.394;2023-12-20T15:06:12;1.80;;;1.70;;
17310;SDS011;8773;43.300;0.394;2023-12-20T15:08:41;1.93;;;1.50;;
17310;SDS011;8773;43.300;0.394;2023-12-20T15:11:08;2.00;;;1.20;;
17310;SDS011;8773;43.300;0.394;2023-12-20T15:13:36;2.20;;;1.93;;
17310;SDS011;8773;43.300;0.394;2023-12-20T15:16:03;1.70;;;1.60;;
17310;SDS011;8773;43.300;0.394;2023-12-20T15:18:31;3.70;;;3.50;;
17310;SDS011;8773;43.300;0.394;2023-12-20T15:20:58;6.60;;;6.10;;
17310;SDS011;8773;43.300;0.394;2023-12-20T15:23:26;3.43;;;3.23;;
17310;SDS011;8773;43.300;0.394;2023-12-20T15:25:54;2.40;;;2.20;;
17310;SDS011;8773;43.300;0.394;2023-12-20T15:28:22;2.67;;;1.90;;
17310;SDS011;8773;43.300;0.394;2023-12-20T15:30:49;2.77;;;2.10;;
17310;SDS011;8773;43.300;0.394;2023-12-20T15:33:17;3.40;;;3.07;;
17310;SDS011;8773;43.300;0.394;2023-12-20T15:35:44;2.90;;;2.73;;
17310;SDS011;8773;43.300;0.394;2023-12-20T15:38:12;3.70;;;3.10;;
17310;SDS011;8773;43.300;0.394;2023-12-20T15:40:40;2.60;;;2.40;;
17310;SDS011;8773;43.300;0.394;2023-12-20T15:43:08;4.00;;;3.70;;
17310;SDS011;8773;43.300;0.394;2023-12-20T15:45:36;4.03;;;3.77;;
17310;SDS011;8773;43.300;0.394;2023-12-20T15:48:03;3.43;;;2.63;;
17310;SDS011;8773;43.300;0.394;2023-12-20T15:50:31;2.37;;;2.20;;
17310;SDS011;8773;43.300;0.394;2023-12-20T15:52:58;3.27;;;2.63;;
17310;SDS011;8773;43.300;0.394;2023-12-20T15:55:25;3.03;;;2.70;;